Husum, Washington
Current Conditions -  °F | °C
As of 11:39 PM on Thursday 18 Dec 2014 (Local Time) from K4S2 Reporting Station
Moderate Rain Moderate Rain  
Wind Chill: 39°   Ceiling: 800
Heat Index: 39°   Visibility: 4mi
Dew Point: 39°   Wind: 0mph
Humidity: 100%   Direction: NA
Pressure: 29.89"   Gusts: NA
Location:  45.8°N, 121.49°W
Report Text: K4S2 190739Z AUTO 00000KT 4SM RA BKN008 OVC022 04/04 A2989 RMK AO2 P0001 SLP136 T00400040
Loading
Personal Weather Stations






























Interactive Weather Map New forecast layout! Learn more

10-Day Weather Forecast

Advertisements
Track Severe Weather on mobile